createdAt,value
2023-04-13T00:00:36.703Z,94818.38
2023-04-13T00:03:22.731Z,94822.97
2023-04-13T00:06:11.032Z,94816.59
2023-04-13T00:08:58.918Z,94805.47
2023-04-13T00:11:47.062Z,94814.63
2023-04-13T00:14:34.005Z,94797.53
2023-04-13T00:17:19.986Z,94811.88
2023-04-13T00:20:10.992Z,94811.69
2023-04-13T00:22:57.156Z,94808.63
2023-04-13T00:25:43.005Z,94815.78
2023-04-13T00:28:30.158Z,94810.81
2023-04-13T00:31:18.334Z,94809.13
2023-04-13T00:34:04.556Z,94809.72
2023-04-13T00:36:50.846Z,94813.03
2023-04-13T00:39:36.899Z,94795.25
2023-04-13T00:42:22.628Z,94807.38
2023-04-13T00:45:09.597Z,94804.59
2023-04-13T00:47:58.133Z,94805.19
2023-04-13T00:50:45.230Z,94807.69
2023-04-13T00:53:31.985Z,94810.19
2023-04-13T00:56:19.216Z,94801.91
2023-04-13T00:59:07.647Z,94804.03
2023-04-13T01:01:57.019Z,94802.22
2023-04-13T01:04:46.034Z,94793.47
2023-04-13T01:07:55.516Z,94793.06
2023-04-13T01:10:57.480Z,94792.09
2023-04-13T01:14:02.171Z,94793.47
2023-04-13T01:16:58.144Z,94790.84
2023-04-13T01:19:53.958Z,94788.88
2023-04-13T01:22:45.694Z,94792.25
2023-04-13T01:25:50.933Z,94792.50
2023-04-13T01:28:38.177Z,94795.63
2023-04-13T01:31:24.857Z,94786.41
2023-04-13T01:34:11.699Z,94796.31
2023-04-13T01:36:57.401Z,94785.38
2023-04-13T01:39:43.095Z,94797.13
2023-04-13T01:42:43.176Z,94787.19
2023-04-13T01:45:39.239Z,94799.22
2023-04-13T01:48:35.573Z,94803.50
2023-04-13T01:51:34.805Z,94805.56
2023-04-13T01:54:25.842Z,94795.34
2023-04-13T01:57:14.268Z,94789.19
2023-04-13T02:00:00.358Z,94790.22
2023-04-13T02:02:46.354Z,94779.78
2023-04-13T02:05:37.014Z,94783.53
2023-04-13T02:08:24.109Z,94786.22
2023-04-13T02:11:12.666Z,94794.38
2023-04-13T02:13:58.856Z,94788.00
2023-04-13T02:16:44.897Z,94793.94
2023-04-13T02:19:34.723Z,94790.75
2023-04-13T02:22:22.372Z,94794.81
2023-04-13T02:25:09.081Z,94796.72
2023-04-13T02:27:54.803Z,94797.50
2023-04-13T02:30:41.059Z,94795.91
2023-04-13T02:33:32.926Z,94799.38
2023-04-13T02:36:20.271Z,94791.13
2023-04-13T02:39:13.863Z,94802.66
2023-04-13T02:41:59.668Z,94815.53
2023-04-13T02:44:50.211Z,94806.78
2023-04-13T02:47:37.809Z,94805.19
2023-04-13T02:50:23.980Z,94806.56
2023-04-13T02:53:18.092Z,94808.16
2023-04-13T02:56:20.698Z,94809.53
2023-04-13T02:59:11.389Z,94815.69
2023-04-13T03:01:58.977Z,94810.09
2023-04-13T03:04:47.698Z,94811.50
2023-04-13T03:07:36.332Z,94820.41
2023-04-13T03:10:23.220Z,94812.25
2023-04-13T03:13:09.857Z,94814.97
2023-04-13T03:15:57.977Z,94811.00
2023-04-13T03:18:45.854Z,94816.16
2023-04-13T03:21:34.502Z,94811.13
2023-04-13T03:24:32.685Z,94797.59
2023-04-13T03:27:23.975Z,94800.78
2023-04-13T03:30:12.972Z,94798.97
2023-04-13T03:33:09.279Z,94796.59
2023-04-13T03:35:57.640Z,94804.31
2023-04-13T03:38:49.681Z,94795.22
2023-04-13T03:41:36.438Z,94800.09
2023-04-13T03:44:22.815Z,94797.19
2023-04-13T03:47:10.086Z,94798.91
2023-04-13T03:49:56.945Z,94793.91
2023-04-13T03:52:44.137Z,94797.91
2023-04-13T03:55:30.301Z,94804.38
2023-04-13T03:58:23.090Z,94805.94
2023-04-13T04:01:12.563Z,94807.03
2023-04-13T04:04:03.911Z,94811.28
2023-04-13T04:06:50.986Z,94806.53
2023-04-13T04:09:36.934Z,94815.06
2023-04-13T04:12:24.046Z,94818.03
2023-04-13T04:15:10.504Z,94826.91
2023-04-13T04:17:58.438Z,94819.53
2023-04-13T04:20:44.639Z,94829.19
2023-04-13T04:23:30.910Z,94829.72
2023-04-13T04:26:25.762Z,94830.00
2023-04-13T04:29:34.417Z,94831.81
2023-04-13T04:32:29.417Z,94831.81
2023-04-13T04:35:19.325Z,94830.00
2023-04-13T04:38:11.191Z,94839.25
2023-04-13T04:40:57.760Z,94836.56
2023-04-13T04:43:46.186Z,94840.38
2023-04-13T04:46:33.559Z,94841.38
2023-04-13T04:49:24.137Z,94841.88
2023-04-13T04:52:12.641Z,94837.06
2023-04-13T04:54:59.768Z,94845.59
2023-04-13T04:57:49.916Z,94841.00
2023-04-13T05:00:38.375Z,94840.16
2023-04-13T05:03:29.684Z,94826.47
2023-04-13T05:06:32.910Z,94832.03
2023-04-13T05:09:20.775Z,94828.78
2023-04-13T05:12:10.659Z,94831.47
2023-04-13T05:14:59.270Z,94826.91
2023-04-13T05:17:47.014Z,94827.63
2023-04-13T05:20:34.789Z,94825.19
2023-04-13T05:23:25.402Z,94816.88
2023-04-13T05:26:20.614Z,94835.56
2023-04-13T05:29:08.189Z,94834.94
2023-04-13T05:32:00.064Z,94829.53
2023-04-13T05:34:47.649Z,94824.09
2023-04-13T05:37:40.222Z,94824.03
2023-04-13T05:40:33.718Z,94821.78
2023-04-13T05:43:23.828Z,94832.94
2023-04-13T05:46:12.464Z,94822.94
2023-04-13T05:48:59.968Z,94825.25
2023-04-13T05:51:46.378Z,94826.75
2023-04-13T05:54:32.715Z,94829.84
2023-04-13T05:57:21.050Z,94826.31
2023-04-13T06:00:10.810Z,94821.38
2023-04-13T06:03:04.574Z,94817.88
2023-04-13T06:05:52.893Z,94826.38
2023-04-13T06:08:40.063Z,94829.75
2023-04-13T06:11:26.365Z,94826.19
2023-04-13T06:14:12.219Z,94826.59
2023-04-13T06:16:59.966Z,94822.53
2023-04-13T06:19:46.044Z,94817.88
2023-04-13T06:22:31.989Z,94827.63
2023-04-13T06:25:18.294Z,94828.03
2023-04-13T06:28:04.934Z,94817.53
2023-04-13T06:30:54.962Z,94808.78
2023-04-13T06:33:40.749Z,94821.41
2023-04-13T06:36:27.127Z,94816.53
2023-04-13T06:39:15.829Z,94816.66
2023-04-13T06:42:07.833Z,94815.44
2023-04-13T06:45:12.135Z,94810.78
2023-04-13T06:48:01.962Z,94819.72
2023-04-13T06:50:52.347Z,94810.16
2023-04-13T06:53:39.379Z,94816.69
2023-04-13T06:56:26.121Z,94813.31
2023-04-13T06:59:12.892Z,94813.69
2023-04-13T07:01:59.659Z,94815.66
2023-04-13T07:04:45.926Z,94810.72
2023-04-13T07:07:31.736Z,94818.84
2023-04-13T07:10:17.713Z,94816.81
2023-04-13T07:13:04.870Z,94822.59
2023-04-13T07:15:52.192Z,94816.97
2023-04-13T07:18:38.714Z,94812.47
2023-04-13T07:21:24.558Z,94812.69
2023-04-13T07:24:18.755Z,94804.19
2023-04-13T07:27:06.710Z,94799.84
2023-04-13T07:29:52.840Z,94807.34
2023-04-13T07:32:41.873Z,94805.69
2023-04-13T07:35:28.735Z,94808.59
2023-04-13T07:38:17.453Z,94801.34
2023-04-13T07:41:03.312Z,94803.63
2023-04-13T07:43:52.236Z,94797.31
2023-04-13T07:46:38.803Z,94802.28
2023-04-13T07:49:24.965Z,94801.88
2023-04-13T07:52:12.757Z,94785.56
2023-04-13T07:55:02.297Z,94789.09
2023-04-13T07:57:53.833Z,94768.78
2023-04-13T08:00:39.883Z,94768.75
2023-04-13T08:03:26.666Z,94774.94
2023-04-13T08:06:12.694Z,94779.81
2023-04-13T08:08:59.970Z,94771.38
2023-04-13T08:11:46.379Z,94773.56
2023-04-13T08:14:32.249Z,94769.53
2023-04-13T08:17:18.576Z,94768.53
2023-04-13T08:20:08.461Z,94759.78
2023-04-13T08:22:55.237Z,94773.66
2023-04-13T08:25:41.938Z,94769.13
2023-04-13T08:28:29.050Z,94768.22
2023-04-13T08:31:16.404Z,94768.44
2023-04-13T08:34:10.953Z,94760.50
2023-04-13T08:36:57.461Z,94771.66
2023-04-13T08:39:48.356Z,94756.25
2023-04-13T08:42:37.347Z,94768.50
2023-04-13T08:45:23.863Z,94759.44
2023-04-13T08:48:11.898Z,94764.66
2023-04-13T08:51:00.498Z,94747.75
2023-04-13T08:53:49.739Z,94739.63
2023-04-13T08:56:46.267Z,94745.84
2023-04-13T08:59:41.571Z,94733.88
2023-04-13T09:02:34.833Z,94727.66
2023-04-13T09:05:26.576Z,94730.34
2023-04-13T09:08:17.108Z,94720.16
2023-04-13T09:11:05.840Z,94728.75
2023-04-13T09:13:52.390Z,94725.56
2023-04-13T09:16:42.919Z,94729.38
2023-04-13T09:19:36.807Z,94720.38
2023-04-13T09:22:27.069Z,94715.94
2023-04-13T09:25:27.436Z,94719.38
2023-04-13T09:28:19.982Z,94722.84
2023-04-13T09:31:06.553Z,94721.59
2023-04-13T09:33:53.370Z,94713.38
2023-04-13T09:36:52.903Z,94706.28
2023-04-13T09:39:39.936Z,94711.09
2023-04-13T09:42:27.172Z,94692.75
2023-04-13T09:45:12.916Z,94704.81
2023-04-13T09:48:02.494Z,94696.56
2023-04-13T09:51:02.266Z,94709.75
2023-04-13T09:53:49.746Z,94696.47
2023-04-13T09:56:47.155Z,94689.75
2023-04-13T09:59:34.314Z,94683.75
2023-04-13T10:02:20.847Z,94681.53
2023-04-13T10:05:09.645Z,94667.97
2023-04-13T10:07:56.364Z,94674.34
2023-04-13T10:10:42.533Z,94674.97
2023-04-13T10:13:32.509Z,94680.63
2023-04-13T10:16:43.476Z,94668.06
2023-04-13T10:19:31.199Z,94677.34
2023-04-13T10:22:17.817Z,94660.44
2023-04-13T10:25:07.061Z,94666.19
2023-04-13T10:28:00.761Z,94662.56
2023-04-13T10:30:52.818Z,94650.16
2023-04-13T10:33:49.739Z,94647.22
2023-04-13T10:36:38.522Z,94652.16
2023-04-13T10:39:28.320Z,94651.72
2023-04-13T10:42:17.852Z,94659.78
2023-04-13T10:45:19.126Z,94643.47
2023-04-13T10:48:06.190Z,94643.69
2023-04-13T10:50:59.442Z,94636.66
2023-04-13T10:53:46.109Z,94645.28
2023-04-13T10:56:31.917Z,94641.50
2023-04-13T10:59:18.077Z,94648.66
2023-04-13T11:02:12.119Z,94643.72
2023-04-13T11:04:57.986Z,94637.22
2023-04-13T11:07:45.613Z,94625.78
2023-04-13T11:10:32.548Z,94624.44
2023-04-13T11:13:18.454Z,94637.59
2023-04-13T11:16:05.700Z,94622.50
2023-04-13T11:19:03.581Z,94601.44
2023-04-13T11:21:58.195Z,94615.56
2023-04-13T11:24:47.791Z,94619.06
2023-04-13T11:27:33.890Z,94618.47
2023-04-13T11:30:22.400Z,94624.84
2023-04-13T11:33:09.997Z,94615.97
2023-04-13T11:36:01.236Z,94618.88
2023-04-13T11:38:48.028Z,94614.22
2023-04-13T11:41:39.647Z,94611.53
2023-04-13T11:44:25.427Z,94615.28
2023-04-13T11:47:13.360Z,94607.31
2023-04-13T11:49:59.207Z,94607.13
2023-04-13T11:52:49.600Z,94597.06
2023-04-13T11:55:50.150Z,94594.44
2023-04-13T11:58:40.621Z,94582.88
2023-04-13T12:01:32.354Z,94585.41
2023-04-13T12:04:21.690Z,94586.47
2023-04-13T12:07:14.000Z,94579.56
2023-04-13T12:10:05.557Z,94588.19
2023-04-13T12:13:15.865Z,94564.16
2023-04-13T12:16:13.316Z,94571.72
2023-04-13T12:19:12.716Z,94569.97
2023-04-13T12:22:06.585Z,94565.00
2023-04-13T12:24:53.519Z,94553.31
2023-04-13T12:27:44.130Z,94549.31
2023-04-13T12:30:30.080Z,94546.94
2023-04-13T12:33:16.671Z,94542.63
2023-04-13T12:36:02.834Z,94544.31
2023-04-13T12:38:48.773Z,94548.44
2023-04-13T12:41:34.569Z,94529.66
2023-04-13T12:44:20.864Z,94514.47
2023-04-13T12:47:06.875Z,94520.47
2023-04-13T12:49:52.871Z,94518.19
2023-04-13T12:52:42.604Z,94515.84
2023-04-13T12:55:30.665Z,94505.59
2023-04-13T12:58:16.597Z,94509.16
2023-04-13T13:01:03.081Z,94511.50
2023-04-13T13:03:48.937Z,94496.56
2023-04-13T13:06:35.502Z,94498.06
2023-04-13T13:09:21.228Z,94495.72
2023-04-13T13:12:07.226Z,94502.78
2023-04-13T13:14:53.268Z,94489.81
2023-04-13T13:17:42.682Z,94492.97
2023-04-13T13:20:28.958Z,94494.22
2023-04-13T13:23:14.989Z,94489.50
2023-04-13T13:26:21.928Z,94486.00
2023-04-13T13:29:07.961Z,94482.44
2023-04-13T13:31:53.798Z,94480.84
2023-04-13T13:34:39.946Z,94487.06
2023-04-13T13:37:26.501Z,94489.44
2023-04-13T13:40:15.816Z,94489.88
2023-04-13T13:43:04.356Z,94490.34
2023-04-13T13:45:50.768Z,94473.88
2023-04-13T13:48:37.475Z,94485.56
2023-04-13T13:51:42.978Z,94473.91
2023-04-13T13:54:32.265Z,94469.94
2023-04-13T13:57:34.375Z,94478.81
2023-04-13T14:00:21.422Z,94472.91
2023-04-13T14:03:07.803Z,94477.25
2023-04-13T14:05:54.159Z,94466.91
2023-04-13T14:08:39.873Z,94470.28
2023-04-13T14:11:26.404Z,94458.72
2023-04-13T14:14:21.141Z,94462.59
2023-04-13T14:17:10.244Z,94454.44
2023-04-13T14:19:56.138Z,94458.19
2023-04-13T14:22:43.345Z,94452.75
2023-04-13T14:25:29.528Z,94463.63
2023-04-13T14:28:15.588Z,94448.56
2023-04-13T14:31:01.729Z,94443.00
2023-04-13T14:33:47.753Z,94448.16
2023-04-13T14:36:33.764Z,94462.34
2023-04-13T14:39:26.039Z,94453.22
2023-04-13T14:42:13.626Z,94449.81
2023-04-13T14:44:59.445Z,94448.16
2023-04-13T14:47:45.619Z,94455.97
2023-04-13T14:50:32.724Z,94450.78
2023-04-13T14:54:04.017Z,94445.53
2023-04-13T14:56:49.873Z,94434.81
2023-04-13T14:59:36.082Z,94445.09
2023-04-13T15:03:29.200Z,94442.84
2023-04-13T15:15:33.973Z,94463.97
2023-04-13T15:18:29.309Z,94463.38
2023-04-13T15:21:15.668Z,94454.63
2023-04-13T15:24:01.825Z,94464.25
2023-04-13T15:27:25.877Z,94446.44
2023-04-13T15:30:14.099Z,94452.84
2023-04-13T15:33:04.432Z,94448.22
2023-04-13T15:35:52.636Z,94449.44
2023-04-13T15:38:38.621Z,94443.59
2023-04-13T15:41:27.275Z,94423.66
2023-04-13T15:44:13.171Z,94437.78
2023-04-13T15:47:02.381Z,94435.09
2023-04-13T15:49:48.876Z,94429.59
2023-04-13T15:52:36.524Z,94436.69
2023-04-13T15:55:22.607Z,94428.91
2023-04-13T15:58:12.821Z,94422.66
2023-04-13T16:01:06.325Z,94425.84
2023-04-13T16:04:11.928Z,94427.44
2023-04-13T16:07:13.763Z,94421.16
2023-04-13T16:10:01.752Z,94418.81
2023-04-13T16:12:50.242Z,94419.59
2023-04-13T16:24:25.286Z,94437.22
2023-04-13T16:27:11.046Z,94423.53
2023-04-13T16:30:05.277Z,94435.28
2023-04-13T16:32:52.805Z,94438.41
2023-04-13T16:35:40.386Z,94421.13
2023-04-13T16:38:26.692Z,94453.22
2023-04-13T16:41:13.643Z,94443.03
2023-04-13T16:44:04.110Z,94456.28
2023-04-13T16:46:56.445Z,94460.56
2023-04-13T16:49:48.220Z,94463.28
2023-04-13T16:52:50.389Z,94457.00
2023-04-13T16:55:53.100Z,94449.16
2023-04-13T16:58:41.084Z,94445.22
2023-04-13T17:01:31.307Z,94427.63
2023-04-13T17:04:18.736Z,94434.63
2023-04-13T17:07:05.449Z,94423.59
2023-04-13T17:09:51.344Z,94433.69
2023-04-13T17:12:37.482Z,94430.94
2023-04-13T17:15:23.629Z,94423.06
2023-04-13T17:18:10.200Z,94431.59
2023-04-13T17:20:56.679Z,94442.06
2023-04-13T17:23:43.580Z,94436.94
2023-04-13T17:26:29.935Z,94441.13
2023-04-13T17:29:17.739Z,94450.06
2023-04-13T17:32:07.517Z,94438.28
2023-04-13T17:34:54.854Z,94449.16
2023-04-13T17:37:41.076Z,94448.28
2023-04-13T17:40:28.213Z,94450.59
2023-04-13T17:43:18.194Z,94452.50
2023-04-13T17:46:04.556Z,94454.41
2023-04-13T17:48:50.377Z,94447.28
2023-04-13T17:51:36.153Z,94444.16
2023-04-13T17:54:22.449Z,94444.91
2023-04-13T17:57:10.670Z,94459.69
2023-04-13T17:59:57.895Z,94460.41
2023-04-13T18:02:44.127Z,94475.56
2023-04-13T18:05:30.356Z,94467.75
2023-04-13T18:08:16.063Z,94471.22
2023-04-13T18:11:02.527Z,94458.66
2023-04-13T18:13:48.267Z,94451.56
2023-04-13T18:16:40.061Z,94467.88
2023-04-13T18:19:27.359Z,94473.31
2023-04-13T18:22:15.105Z,94478.78
2023-04-13T18:25:02.026Z,94487.72
2023-04-13T18:27:50.183Z,94485.72
2023-04-13T18:30:37.589Z,94493.09
2023-04-13T18:33:24.172Z,94478.59
2023-04-13T18:36:10.518Z,94478.59
2023-04-13T18:38:56.689Z,94485.63
2023-04-13T18:41:42.747Z,94486.31
2023-04-13T18:44:28.717Z,94494.13
2023-04-13T18:47:15.036Z,94500.34
2023-04-13T18:50:01.557Z,94494.06
2023-04-13T18:52:48.426Z,94508.00
2023-04-13T18:55:35.125Z,94500.84
2023-04-13T18:58:21.602Z,94495.31
2023-04-13T19:01:17.860Z,94504.66
2023-04-13T19:04:04.344Z,94492.47
2023-04-13T19:06:50.575Z,94497.03
2023-04-13T19:09:37.458Z,94498.13
2023-04-13T19:12:23.604Z,94485.56
2023-04-13T19:15:10.139Z,94492.50
2023-04-13T19:17:56.955Z,94492.00
2023-04-13T19:20:43.164Z,94508.72
2023-04-13T19:23:29.372Z,94508.31
2023-04-13T19:26:15.987Z,94509.41
2023-04-13T19:29:04.047Z,94514.84
2023-04-13T19:31:50.271Z,94510.97
2023-04-13T19:34:36.508Z,94514.84
2023-04-13T19:37:22.718Z,94502.72
2023-04-13T19:40:10.007Z,94498.44
2023-04-13T19:42:56.088Z,94495.31
2023-04-13T19:45:42.614Z,94506.25
2023-04-13T19:48:28.335Z,94495.31
2023-04-13T19:51:14.360Z,94488.28
2023-04-13T19:54:02.736Z,94487.13
2023-04-13T19:56:49.381Z,94493.31
2023-04-13T19:59:40.459Z,94481.97
2023-04-13T20:02:28.714Z,94486.28
2023-04-13T20:05:15.506Z,94478.03
2023-04-13T20:08:01.600Z,94485.84
2023-04-13T20:10:47.939Z,94478.00
2023-04-13T20:13:34.105Z,94477.16
2023-04-13T20:16:20.260Z,94470.13
2023-04-13T20:19:07.088Z,94468.13
2023-04-13T20:21:54.355Z,94452.81
2023-04-13T20:24:40.590Z,94459.78
2023-04-13T20:27:27.376Z,94449.16
2023-04-13T20:30:13.681Z,94447.09
2023-04-13T20:32:59.924Z,94457.16
2023-04-13T20:35:45.898Z,94460.25
2023-04-13T20:38:31.910Z,94454.75
2023-04-13T20:41:19.320Z,94462.91
2023-04-13T20:44:05.520Z,94453.16
2023-04-13T20:46:54.945Z,94464.06
2023-04-13T20:49:47.028Z,94459.31
2023-04-13T20:52:33.040Z,94462.44
2023-04-13T20:55:22.120Z,94459.63
2023-04-13T20:58:08.325Z,94444.03
2023-04-13T21:00:54.752Z,94436.97
2023-04-13T21:03:40.865Z,94437.25
2023-04-13T21:06:30.019Z,94431.03
2023-04-13T21:09:16.143Z,94436.47
2023-04-13T21:12:02.414Z,94434.88
2023-04-13T21:14:48.132Z,94430.91
2023-04-13T21:17:34.726Z,94434.84
2023-04-13T21:20:21.071Z,94432.41
2023-04-13T21:23:06.939Z,94419.88
2023-04-13T21:25:52.834Z,94430.84
2023-04-13T21:28:38.759Z,94435.50
2023-04-13T21:31:24.409Z,94417.59
2023-04-13T21:34:10.256Z,94423.75
2023-04-13T21:36:56.151Z,94422.97
2023-04-13T21:39:42.091Z,94412.75
2023-04-13T21:42:33.028Z,94418.97
2023-04-13T21:45:19.304Z,94420.47
2023-04-13T21:48:05.812Z,94401.75
2023-04-13T21:50:52.787Z,94405.59
2023-04-13T21:53:39.079Z,94412.53
2023-04-13T21:56:24.788Z,94402.34
2023-04-13T21:59:10.671Z,94404.63
2023-04-13T22:01:56.880Z,94394.69
2023-04-13T22:04:42.770Z,94394.34
2023-04-13T22:07:41.681Z,94395.34
2023-04-13T22:10:35.083Z,94389.59
2023-04-13T22:13:22.434Z,94392.69
2023-04-13T22:16:10.929Z,94390.31
2023-04-13T22:18:58.890Z,94393.38
2023-04-13T22:21:49.760Z,94389.47
2023-04-13T22:24:37.597Z,94390.53
2023-04-13T22:27:25.317Z,94397.47
2023-04-13T22:30:14.667Z,94394.59
2023-04-13T22:33:02.850Z,94400.75
2023-04-13T22:35:53.197Z,94408.91
2023-04-13T22:38:41.043Z,94420.50
2023-04-13T22:41:28.080Z,94406.81
2023-04-13T22:44:13.757Z,94405.59
2023-04-13T22:47:00.524Z,94395.88
2023-04-13T22:49:46.325Z,94389.59
2023-04-13T22:52:31.966Z,94385.66
2023-04-13T22:55:18.213Z,94373.13
2023-04-13T22:58:03.990Z,94368.41
2023-04-13T23:00:50.867Z,94370.72
2023-04-13T23:03:37.085Z,94375.72
2023-04-13T23:06:25.317Z,94371.28
2023-04-13T23:09:11.383Z,94371.28
2023-04-13T23:12:03.072Z,94381.28
2023-04-13T23:14:48.736Z,94388.28
2023-04-13T23:17:34.604Z,94381.28
2023-04-13T23:20:21.352Z,94381.72
2023-04-13T23:23:11.643Z,94371.56
2023-04-13T23:25:57.534Z,94363.84
2023-04-13T23:28:43.616Z,94372.00
2023-04-13T23:31:29.764Z,94366.13
2023-04-13T23:34:15.449Z,94377.41
2023-04-13T23:37:01.421Z,94374.28
2023-04-13T23:39:47.470Z,94366.41
2023-04-13T23:42:35.918Z,94363.31
2023-04-13T23:45:22.683Z,94360.97
2023-04-13T23:48:09.500Z,94356.59
2023-04-13T23:50:55.604Z,94363.63
2023-04-13T23:53:41.979Z,94348.38
2023-04-13T23:56:28.353Z,94346.09
2023-04-13T23:59:14.039Z,94340.97
